ROMMA est une association bénévole à but non lucratif. Votre soutien est indispensable : ADHERER à ROMMA ou FAIRE un DON

St-Christophe/Guiers - Berland - (38, Isère)

Massif de la Chartreuse (533 m)   Longitude: 05° 46' 44" E   Latitude: 45° 25' 43" N Station partenaire n°32
 

Détail journalier du     <<     >>

Température Precipitation Humidité Pression Vent Dir Rafale Dir. rafale Ensol.
Heure (°C) (mm) (%) (hPa) (km/h) (km/h) (min)
01:00 10.405910154ENE18ENE0
02:00 8.506510154E16ENE0
03:00 8.406310152E8E0
04:00 7.806510142E8ENE0
05:00 6.806910141---8E0
06:00 6.8071101406NE0
07:00 6.307410141---6ENE0
08:00 6.1075101405ENE0
09:00 7.2074101400---45
10:00 8.8071101400---35
11:00 11.1065101305ONO45
12:00 13.804910134SO10SO60
13:00 14.6047101210SO21SO30
14:00 15.1048101213SO27SO45
15:00 15.6046101115SO27SO50
16:00 15.6046101113SO27SO10
17:00 14.8046101010SO24SO0
18:00 14.504410118SO21SO0
19:00 13.304610119SO27SO0
20:00 12.504910117SO19OSO0
21:00 11.805310114SO16SSO0
22:00 11.605610114SO19OSO0
23:00 10.306710103SO18OSO0
minuit 9.107510103ENE6E0

Graphique du 02-04-2019

 

Serveur OMMA